sensor_id;sensor_type;location;lat;lon;timestamp;pressure;altitude;pressure_sealevel;temperature;humidity
50226;BME280;36113;50.742;6.432;2023-04-25T00:01:21;112741.81;;;-145.50;95.13
50226;BME280;36113;50.742;6.432;2023-04-25T00:03:47;112741.81;;;-145.50;95.02
50226;BME280;36113;50.742;6.432;2023-04-25T00:06:13;112741.81;;;-145.50;95.20
50226;BME280;36113;50.742;6.432;2023-04-25T00:08:39;112741.81;;;-145.50;95.19
50226;BME280;36113;50.742;6.432;2023-04-25T00:11:04;112741.81;;;-145.50;95.43
50226;BME280;36113;50.742;6.432;2023-04-25T00:13:30;112741.81;;;-145.50;95.77
50226;BME280;36113;50.742;6.432;2023-04-25T00:15:55;112741.81;;;-145.50;95.77
50226;BME280;36113;50.742;6.432;2023-04-25T00:18:21;112741.81;;;-145.50;95.66
50226;BME280;36113;50.742;6.432;2023-04-25T00:20:47;112741.81;;;-145.50;95.68
50226;BME280;36113;50.742;6.432;2023-04-25T00:23:14;112741.81;;;-145.50;95.95
50226;BME280;36113;50.742;6.432;2023-04-25T00:25:49;112741.81;;;-145.50;96.28
50226;BME280;36113;50.742;6.432;2023-04-25T00:28:15;112741.81;;;-145.50;96.21
50226;BME280;36113;50.742;6.432;2023-04-25T00:30:43;112741.81;;;-145.50;96.59
50226;BME280;36113;50.742;6.432;2023-04-25T00:33:09;112741.81;;;-145.50;96.61
50226;BME280;36113;50.742;6.432;2023-04-25T00:35:35;112741.81;;;-145.50;96.32
50226;BME280;36113;50.742;6.432;2023-04-25T00:38:00;112741.81;;;-145.50;96.43
50226;BME280;36113;50.742;6.432;2023-04-25T00:40:26;112741.81;;;-145.50;96.15
50226;BME280;36113;50.742;6.432;2023-04-25T00:42:53;112741.81;;;-145.50;96.21
50226;BME280;36113;50.742;6.432;2023-04-25T00:45:19;112741.81;;;-145.50;96.03
50226;BME280;36113;50.742;6.432;2023-04-25T00:47:45;112741.81;;;-145.50;96.09
50226;BME280;36113;50.742;6.432;2023-04-25T00:50:11;112741.81;;;-145.50;96.27
50226;BME280;36113;50.742;6.432;2023-04-25T00:52:41;112741.81;;;-145.50;96.14
50226;BME280;36113;50.742;6.432;2023-04-25T00:55:08;112741.81;;;-145.50;96.06
50226;BME280;36113;50.742;6.432;2023-04-25T00:57:34;112741.81;;;-145.50;95.82
50226;BME280;36113;50.742;6.432;2023-04-25T01:00:00;112741.81;;;-145.50;95.94
50226;BME280;36113;50.742;6.432;2023-04-25T01:02:26;112741.81;;;-145.50;95.89
50226;BME280;36113;50.742;6.432;2023-04-25T01:04:52;112741.81;;;-145.50;95.92
50226;BME280;36113;50.742;6.432;2023-04-25T01:07:17;112741.81;;;-145.50;95.96
50226;BME280;36113;50.742;6.432;2023-04-25T01:09:43;112741.81;;;-145.50;95.79
50226;BME280;36113;50.742;6.432;2023-04-25T01:12:08;112741.81;;;-145.50;95.54
50226;BME280;36113;50.742;6.432;2023-04-25T01:14:34;112741.81;;;-145.50;95.22
50226;BME280;36113;50.742;6.432;2023-04-25T01:16:59;112741.81;;;-145.50;95.03
50226;BME280;36113;50.742;6.432;2023-04-25T01:19:25;112741.81;;;-145.50;94.73
50226;BME280;36113;50.742;6.432;2023-04-25T01:21:50;112741.81;;;-145.50;94.74
50226;BME280;36113;50.742;6.432;2023-04-25T01:24:16;112741.81;;;-145.50;94.66
50226;BME280;36113;50.742;6.432;2023-04-25T01:26:42;112741.81;;;-145.50;94.80
50226;BME280;36113;50.742;6.432;2023-04-25T01:29:14;112741.81;;;-145.50;94.71
50226;BME280;36113;50.742;6.432;2023-04-25T01:31:40;112741.81;;;-145.50;94.63
50226;BME280;36113;50.742;6.432;2023-04-25T01:34:06;112741.81;;;-145.50;94.78
50226;BME280;36113;50.742;6.432;2023-04-25T01:36:31;112741.81;;;-145.50;95.10
50226;BME280;36113;50.742;6.432;2023-04-25T01:38:57;112741.81;;;-145.50;95.50
50226;BME280;36113;50.742;6.432;2023-04-25T01:41:22;112741.81;;;-145.50;95.70
50226;BME280;36113;50.742;6.432;2023-04-25T01:43:48;112741.81;;;-145.50;95.89
50226;BME280;36113;50.742;6.432;2023-04-25T01:46:13;112741.81;;;-145.50;95.69
50226;BME280;36113;50.742;6.432;2023-04-25T01:48:39;112741.81;;;-145.50;95.67
50226;BME280;36113;50.742;6.432;2023-04-25T01:51:04;112741.81;;;-145.50;95.57
50226;BME280;36113;50.742;6.432;2023-04-25T01:53:30;112741.81;;;-145.50;95.45
50226;BME280;36113;50.742;6.432;2023-04-25T01:55:55;112741.81;;;-145.50;95.08
50226;BME280;36113;50.742;6.432;2023-04-25T01:58:20;112741.81;;;-145.50;94.89
50226;BME280;36113;50.742;6.432;2023-04-25T02:00:46;112741.81;;;-145.50;94.90
50226;BME280;36113;50.742;6.432;2023-04-25T02:03:11;112741.81;;;-145.50;94.68
50226;BME280;36113;50.742;6.432;2023-04-25T02:05:37;112741.81;;;-145.50;94.89
50226;BME280;36113;50.742;6.432;2023-04-25T02:08:08;112741.81;;;-145.50;94.88
50226;BME280;36113;50.742;6.432;2023-04-25T02:10:34;112741.81;;;-145.50;95.01
50226;BME280;36113;50.742;6.432;2023-04-25T02:13:00;112741.81;;;-145.50;94.71
50226;BME280;36113;50.742;6.432;2023-04-25T02:15:25;112741.81;;;-145.50;94.51
50226;BME280;36113;50.742;6.432;2023-04-25T02:17:50;112741.81;;;-145.50;94.56
50226;BME280;36113;50.742;6.432;2023-04-25T02:20:18;112741.81;;;-145.50;94.60
50226;BME280;36113;50.742;6.432;2023-04-25T02:22:45;112741.81;;;-145.50;94.64
50226;BME280;36113;50.742;6.432;2023-04-25T02:25:11;112741.81;;;-145.50;94.63
50226;BME280;36113;50.742;6.432;2023-04-25T02:27:36;112741.81;;;-145.50;94.38
50226;BME280;36113;50.742;6.432;2023-04-25T02:30:02;112741.81;;;-145.50;94.33
50226;BME280;36113;50.742;6.432;2023-04-25T02:32:28;112741.81;;;-145.50;94.11
50226;BME280;36113;50.742;6.432;2023-04-25T02:34:53;112741.81;;;-145.50;93.92
50226;BME280;36113;50.742;6.432;2023-04-25T02:37:19;112741.81;;;-145.50;93.94
50226;BME280;36113;50.742;6.432;2023-04-25T02:39:44;112741.81;;;-145.50;93.65
50226;BME280;36113;50.742;6.432;2023-04-25T02:42:09;112741.81;;;-145.50;93.57
50226;BME280;36113;50.742;6.432;2023-04-25T02:44:35;112741.81;;;-145.50;93.71
50226;BME280;36113;50.742;6.432;2023-04-25T02:47:00;112741.81;;;-145.50;93.38
50226;BME280;36113;50.742;6.432;2023-04-25T02:49:25;112741.81;;;-145.50;93.63
50226;BME280;36113;50.742;6.432;2023-04-25T02:51:51;112741.81;;;-145.50;93.45
50226;BME280;36113;50.742;6.432;2023-04-25T02:54:16;112741.81;;;-145.50;93.52
50226;BME280;36113;50.742;6.432;2023-04-25T02:56:41;112741.81;;;-145.50;93.61
50226;BME280;36113;50.742;6.432;2023-04-25T02:59:06;112741.81;;;-145.50;93.79
50226;BME280;36113;50.742;6.432;2023-04-25T03:01:32;112741.81;;;-145.50;93.97
50226;BME280;36113;50.742;6.432;2023-04-25T03:03:57;112741.81;;;-145.50;93.96
50226;BME280;36113;50.742;6.432;2023-04-25T03:06:22;112741.81;;;-145.50;94.28
50226;BME280;36113;50.742;6.432;2023-04-25T03:08:48;112741.81;;;-145.50;94.16
50226;BME280;36113;50.742;6.432;2023-04-25T03:11:13;112741.81;;;-145.50;93.87
50226;BME280;36113;50.742;6.432;2023-04-25T03:13:38;112741.81;;;-145.50;94.07
50226;BME280;36113;50.742;6.432;2023-04-25T03:16:04;112741.81;;;-145.50;94.23
50226;BME280;36113;50.742;6.432;2023-04-25T03:18:29;112741.81;;;-145.50;94.18
50226;BME280;36113;50.742;6.432;2023-04-25T03:20:55;112741.81;;;-145.50;94.27
50226;BME280;36113;50.742;6.432;2023-04-25T03:23:20;112741.81;;;-145.50;94.59
50226;BME280;36113;50.742;6.432;2023-04-25T03:25:46;112741.81;;;-145.50;94.71
50226;BME280;36113;50.742;6.432;2023-04-25T03:28:11;112741.81;;;-145.50;94.73
50226;BME280;36113;50.742;6.432;2023-04-25T03:30:36;112741.81;;;-145.50;94.56
50226;BME280;36113;50.742;6.432;2023-04-25T03:33:02;112741.81;;;-145.50;94.86
50226;BME280;36113;50.742;6.432;2023-04-25T03:35:27;112741.81;;;-145.50;95.25
50226;BME280;36113;50.742;6.432;2023-04-25T03:37:53;112741.81;;;-145.50;95.47
50226;BME280;36113;50.742;6.432;2023-04-25T03:40:18;112741.81;;;-145.50;95.37
50226;BME280;36113;50.742;6.432;2023-04-25T03:42:43;112741.81;;;-145.50;95.51
50226;BME280;36113;50.742;6.432;2023-04-25T03:45:08;112741.81;;;-145.50;95.65
50226;BME280;36113;50.742;6.432;2023-04-25T03:47:34;112741.81;;;-145.50;95.49
50226;BME280;36113;50.742;6.432;2023-04-25T03:49:59;112741.81;;;-145.50;95.46
50226;BME280;36113;50.742;6.432;2023-04-25T03:52:26;112741.81;;;-145.50;95.60
50226;BME280;36113;50.742;6.432;2023-04-25T03:54:52;112741.81;;;-145.50;95.96
50226;BME280;36113;50.742;6.432;2023-04-25T03:57:17;112741.81;;;-145.50;95.89
50226;BME280;36113;50.742;6.432;2023-04-25T03:59:43;112741.81;;;-145.50;95.82
50226;BME280;36113;50.742;6.432;2023-04-25T04:02:09;112741.81;;;-145.50;95.69
50226;BME280;36113;50.742;6.432;2023-04-25T04:04:34;112741.81;;;-145.50;95.74
50226;BME280;36113;50.742;6.432;2023-04-25T04:07:00;112741.81;;;-145.50;95.97
50226;BME280;36113;50.742;6.432;2023-04-25T04:09:25;112741.81;;;-145.50;96.11
50226;BME280;36113;50.742;6.432;2023-04-25T04:11:52;112741.81;;;-145.50;96.26
50226;BME280;36113;50.742;6.432;2023-04-25T04:14:17;112741.81;;;-145.50;96.26
50226;BME280;36113;50.742;6.432;2023-04-25T04:16:43;112741.81;;;-145.50;95.94
50226;BME280;36113;50.742;6.432;2023-04-25T04:19:08;112741.81;;;-145.50;95.85
50226;BME280;36113;50.742;6.432;2023-04-25T04:21:33;112741.81;;;-145.50;95.15
50226;BME280;36113;50.742;6.432;2023-04-25T04:23:59;112741.81;;;-145.50;95.54
50226;BME280;36113;50.742;6.432;2023-04-25T04:26:25;112741.81;;;-145.50;95.92
50226;BME280;36113;50.742;6.432;2023-04-25T04:28:51;112741.81;;;-145.50;95.74
50226;BME280;36113;50.742;6.432;2023-04-25T04:31:17;112741.81;;;-145.50;95.37
50226;BME280;36113;50.742;6.432;2023-04-25T04:33:44;112741.81;;;-145.50;95.37
50226;BME280;36113;50.742;6.432;2023-04-25T04:36:11;112741.81;;;-145.50;95.06
50226;BME280;36113;50.742;6.432;2023-04-25T04:38:36;112741.81;;;-145.50;95.29
50226;BME280;36113;50.742;6.432;2023-04-25T04:41:02;112741.81;;;-145.50;95.50
50226;BME280;36113;50.742;6.432;2023-04-25T04:43:28;112741.81;;;-145.50;95.76
50226;BME280;36113;50.742;6.432;2023-04-25T04:45:54;112741.81;;;-145.50;96.26
50226;BME280;36113;50.742;6.432;2023-04-25T04:48:21;112741.81;;;-145.50;96.06
50226;BME280;36113;50.742;6.432;2023-04-25T04:50:47;112741.81;;;-145.50;96.05
50226;BME280;36113;50.742;6.432;2023-04-25T04:53:12;112741.81;;;-145.50;96.14
50226;BME280;36113;50.742;6.432;2023-04-25T04:55:38;112741.81;;;-145.50;95.94
50226;BME280;36113;50.742;6.432;2023-04-25T04:58:03;112741.81;;;-145.50;95.62
50226;BME280;36113;50.742;6.432;2023-04-25T05:00:28;112741.81;;;-145.50;95.62
50226;BME280;36113;50.742;6.432;2023-04-25T05:02:55;112741.81;;;-145.50;95.47
50226;BME280;36113;50.742;6.432;2023-04-25T05:05:20;112741.81;;;-145.50;95.44
50226;BME280;36113;50.742;6.432;2023-04-25T05:07:46;112741.81;;;-145.50;95.31
50226;BME280;36113;50.742;6.432;2023-04-25T05:10:11;112741.81;;;-145.50;95.56
50226;BME280;36113;50.742;6.432;2023-04-25T05:12:36;112741.81;;;-145.50;95.15
50226;BME280;36113;50.742;6.432;2023-04-25T05:15:02;112741.81;;;-145.50;95.17
50226;BME280;36113;50.742;6.432;2023-04-25T05:17:27;112741.81;;;-145.50;94.48
50226;BME280;36113;50.742;6.432;2023-04-25T05:19:52;112741.81;;;-145.50;94.68
50226;BME280;36113;50.742;6.432;2023-04-25T05:22:17;112741.81;;;-145.50;94.19
50226;BME280;36113;50.742;6.432;2023-04-25T05:24:43;112741.81;;;-145.50;94.75
50226;BME280;36113;50.742;6.432;2023-04-25T05:27:08;112741.81;;;-145.50;93.74
50226;BME280;36113;50.742;6.432;2023-04-25T05:29:33;112741.81;;;-145.50;94.04
50226;BME280;36113;50.742;6.432;2023-04-25T05:32:00;112741.81;;;-145.50;93.98
50226;BME280;36113;50.742;6.432;2023-04-25T05:34:25;112741.81;;;-145.50;93.95
50226;BME280;36113;50.742;6.432;2023-04-25T05:36:51;112741.81;;;-145.50;93.56
50226;BME280;36113;50.742;6.432;2023-04-25T05:39:16;112741.81;;;-145.50;93.33
50226;BME280;36113;50.742;6.432;2023-04-25T05:41:42;112741.81;;;-145.50;93.49
50226;BME280;36113;50.742;6.432;2023-04-25T05:44:07;112741.81;;;-145.50;93.82
50226;BME280;36113;50.742;6.432;2023-04-25T05:46:33;112741.81;;;-145.50;93.76
50226;BME280;36113;50.742;6.432;2023-04-25T05:48:58;112741.81;;;-145.50;93.63
50226;BME280;36113;50.742;6.432;2023-04-25T05:51:24;112741.81;;;-145.50;93.17
50226;BME280;36113;50.742;6.432;2023-04-25T05:53:49;112741.81;;;-145.50;92.70
50226;BME280;36113;50.742;6.432;2023-04-25T05:56:14;112741.81;;;-145.50;92.26
50226;BME280;36113;50.742;6.432;2023-04-25T05:58:40;112741.81;;;-145.50;92.29
50226;BME280;36113;50.742;6.432;2023-04-25T06:01:05;112741.81;;;-145.50;92.16
50226;BME280;36113;50.742;6.432;2023-04-25T06:03:30;112741.81;;;-145.50;92.01
50226;BME280;36113;50.742;6.432;2023-04-25T06:05:56;112741.81;;;-145.50;91.30
50226;BME280;36113;50.742;6.432;2023-04-25T06:08:21;112741.81;;;-145.50;91.23
50226;BME280;36113;50.742;6.432;2023-04-25T06:10:46;112741.81;;;-145.50;90.88
50226;BME280;36113;50.742;6.432;2023-04-25T06:13:12;112741.81;;;-145.50;90.06
50226;BME280;36113;50.742;6.432;2023-04-25T06:15:37;112741.81;;;-145.50;89.78
50226;BME280;36113;50.742;6.432;2023-04-25T06:18:02;112741.81;;;-145.50;89.72
50226;BME280;36113;50.742;6.432;2023-04-25T06:20:28;112741.81;;;-145.50;90.05
50226;BME280;36113;50.742;6.432;2023-04-25T06:22:53;112741.81;;;-145.50;89.96
50226;BME280;36113;50.742;6.432;2023-04-25T06:25:19;112741.81;;;-145.50;89.99
50226;BME280;36113;50.742;6.432;2023-04-25T06:27:45;112741.81;;;-145.50;90.07
50226;BME280;36113;50.742;6.432;2023-04-25T06:30:10;112741.81;;;-145.50;89.75
50226;BME280;36113;50.742;6.432;2023-04-25T06:32:37;112741.81;;;-145.50;89.00
50226;BME280;36113;50.742;6.432;2023-04-25T06:35:02;112741.81;;;-145.50;88.87
50226;BME280;36113;50.742;6.432;2023-04-25T06:37:28;112741.81;;;-145.50;88.29
50226;BME280;36113;50.742;6.432;2023-04-25T06:39:54;112741.81;;;-145.50;87.93
50226;BME280;36113;50.742;6.432;2023-04-25T06:42:19;112741.81;;;-145.50;87.19
50226;BME280;36113;50.742;6.432;2023-04-25T06:44:44;112741.81;;;-145.50;86.88
50226;BME280;36113;50.742;6.432;2023-04-25T06:47:10;112741.81;;;-145.50;86.65
50226;BME280;36113;50.742;6.432;2023-04-25T06:49:35;112741.81;;;-145.50;87.96
50226;BME280;36113;50.742;6.432;2023-04-25T06:52:00;112741.81;;;-145.50;87.20
50226;BME280;36113;50.742;6.432;2023-04-25T06:54:26;112741.81;;;-145.50;86.60
50226;BME280;36113;50.742;6.432;2023-04-25T06:56:53;112741.81;;;-145.50;86.01
50226;BME280;36113;50.742;6.432;2023-04-25T06:59:19;112741.81;;;-145.50;85.55
50226;BME280;36113;50.742;6.432;2023-04-25T07:01:44;112741.81;;;-145.50;85.79
50226;BME280;36113;50.742;6.432;2023-04-25T07:04:10;112741.81;;;-145.50;85.65
50226;BME280;36113;50.742;6.432;2023-04-25T07:06:35;112741.81;;;-145.50;84.18
50226;BME280;36113;50.742;6.432;2023-04-25T07:09:03;112741.81;;;-145.50;83.74
50226;BME280;36113;50.742;6.432;2023-04-25T07:11:29;112741.81;;;-145.50;83.84
50226;BME280;36113;50.742;6.432;2023-04-25T07:13:55;112741.81;;;-145.50;83.46
50226;BME280;36113;50.742;6.432;2023-04-25T07:16:20;112741.81;;;-145.50;83.36
50226;BME280;36113;50.742;6.432;2023-04-25T07:18:45;112741.81;;;-145.50;82.62
50226;BME280;36113;50.742;6.432;2023-04-25T07:21:10;112741.81;;;-145.50;80.74
50226;BME280;36113;50.742;6.432;2023-04-25T07:23:36;112741.81;;;-145.50;80.05
50226;BME280;36113;50.742;6.432;2023-04-25T07:26:02;112741.81;;;-145.50;80.28
50226;BME280;36113;50.742;6.432;2023-04-25T07:28:28;112741.81;;;-145.50;79.98
50226;BME280;36113;50.742;6.432;2023-04-25T07:30:53;112741.81;;;-145.50;80.38
50226;BME280;36113;50.742;6.432;2023-04-25T07:33:18;112741.81;;;-145.50;80.01
50226;BME280;36113;50.742;6.432;2023-04-25T07:35:45;112741.81;;;-145.50;79.66
50226;BME280;36113;50.742;6.432;2023-04-25T07:38:10;112741.81;;;-145.50;79.60
50226;BME280;36113;50.742;6.432;2023-04-25T07:40:36;112741.81;;;-145.50;79.60
50226;BME280;36113;50.742;6.432;2023-04-25T07:43:01;112741.81;;;-145.50;78.48
50226;BME280;36113;50.742;6.432;2023-04-25T07:45:27;112741.81;;;-145.50;77.33
50226;BME280;36113;50.742;6.432;2023-04-25T07:47:52;112741.81;;;-145.50;76.54
50226;BME280;36113;50.742;6.432;2023-04-25T07:50:17;112741.81;;;-145.50;76.37
50226;BME280;36113;50.742;6.432;2023-04-25T07:52:43;112741.81;;;-145.50;76.29
50226;BME280;36113;50.742;6.432;2023-04-25T07:55:08;112741.81;;;-145.50;75.74
50226;BME280;36113;50.742;6.432;2023-04-25T07:57:34;112741.81;;;-145.50;75.01
50226;BME280;36113;50.742;6.432;2023-04-25T07:59:59;112741.81;;;-145.50;75.49
50226;BME280;36113;50.742;6.432;2023-04-25T08:02:25;112741.81;;;-145.50;75.82
50226;BME280;36113;50.742;6.432;2023-04-25T08:04:53;112741.81;;;-145.50;75.10
50226;BME280;36113;50.742;6.432;2023-04-25T08:07:18;112741.81;;;-145.50;74.17
50226;BME280;36113;50.742;6.432;2023-04-25T08:09:43;112741.81;;;-145.50;74.39
50226;BME280;36113;50.742;6.432;2023-04-25T08:12:09;112741.81;;;-145.50;73.37
50226;BME280;36113;50.742;6.432;2023-04-25T08:14:34;112741.81;;;-145.50;72.31
50226;BME280;36113;50.742;6.432;2023-04-25T08:17:04;112741.81;;;-145.50;71.07
50226;BME280;36113;50.742;6.432;2023-04-25T08:19:30;112741.81;;;-145.50;71.70
50226;BME280;36113;50.742;6.432;2023-04-25T08:21:56;112741.81;;;-145.50;72.83
50226;BME280;36113;50.742;6.432;2023-04-25T08:24:22;112741.81;;;-145.50;72.03
50226;BME280;36113;50.742;6.432;2023-04-25T08:26:48;112741.81;;;-145.50;72.75
50226;BME280;36113;50.742;6.432;2023-04-25T08:29:13;112741.81;;;-145.50;72.39
50226;BME280;36113;50.742;6.432;2023-04-25T08:31:39;112741.81;;;-145.50;73.53
50226;BME280;36113;50.742;6.432;2023-04-25T08:34:04;112741.81;;;-145.50;75.01
50226;BME280;36113;50.742;6.432;2023-04-25T08:36:29;112741.81;;;-145.50;75.43
50226;BME280;36113;50.742;6.432;2023-04-25T08:38:55;112741.81;;;-145.50;73.37
50226;BME280;36113;50.742;6.432;2023-04-25T08:41:21;112741.81;;;-145.50;72.78
50226;BME280;36113;50.742;6.432;2023-04-25T08:43:48;112741.81;;;-145.50;71.20
50226;BME280;36113;50.742;6.432;2023-04-25T08:46:17;112741.81;;;-145.50;69.54
50226;BME280;36113;50.742;6.432;2023-04-25T08:48:44;112741.81;;;-145.50;67.85
50226;BME280;36113;50.742;6.432;2023-04-25T08:51:15;112741.81;;;-145.50;67.06
50226;BME280;36113;50.742;6.432;2023-04-25T08:53:41;112741.81;;;-145.50;63.37
50226;BME280;36113;50.742;6.432;2023-04-25T08:56:07;112741.81;;;-145.50;63.51
50226;BME280;36113;50.742;6.432;2023-04-25T08:58:34;112741.81;;;-145.50;61.95
50226;BME280;36113;50.742;6.432;2023-04-25T09:01:00;112741.81;;;-145.50;61.97
50226;BME280;36113;50.742;6.432;2023-04-25T09:03:25;112741.81;;;-145.50;62.38
50226;BME280;36113;50.742;6.432;2023-04-25T09:05:51;112741.81;;;-145.50;59.37
50226;BME280;36113;50.742;6.432;2023-04-25T09:08:17;112741.81;;;-145.50;62.55
50226;BME280;36113;50.742;6.432;2023-04-25T09:10:42;112741.81;;;-145.50;58.67
50226;BME280;36113;50.742;6.432;2023-04-25T09:13:08;112741.81;;;-145.50;59.23
50226;BME280;36113;50.742;6.432;2023-04-25T09:15:49;112741.81;;;-145.50;58.96
50226;BME280;36113;50.742;6.432;2023-04-25T09:18:31;112741.81;;;-145.50;55.28
50226;BME280;36113;50.742;6.432;2023-04-25T09:21:05;112741.81;;;-145.50;54.64
50226;BME280;36113;50.742;6.432;2023-04-25T09:23:39;112741.81;;;-145.50;54.95
50226;BME280;36113;50.742;6.432;2023-04-25T09:26:06;112741.81;;;-145.50;54.10
50226;BME280;36113;50.742;6.432;2023-04-25T09:28:32;112741.81;;;-145.50;54.15
50226;BME280;36113;50.742;6.432;2023-04-25T09:30:57;112741.81;;;-145.50;53.41
50226;BME280;36113;50.742;6.432;2023-04-25T09:33:30;112741.81;;;-145.50;53.30
50226;BME280;36113;50.742;6.432;2023-04-25T09:36:09;112741.81;;;-145.50;53.83
50226;BME280;36113;50.742;6.432;2023-04-25T09:38:43;112741.81;;;-145.50;53.77
50226;BME280;36113;50.742;6.432;2023-04-25T09:41:09;112741.81;;;-145.50;51.88
50226;BME280;36113;50.742;6.432;2023-04-25T09:43:35;112741.81;;;-145.50;51.52
50226;BME280;36113;50.742;6.432;2023-04-25T09:46:01;112741.81;;;-145.50;51.64
50226;BME280;36113;50.742;6.432;2023-04-25T09:48:27;112741.81;;;-145.50;51.33
50226;BME280;36113;50.742;6.432;2023-04-25T09:51:12;112741.81;;;-145.50;51.92
50226;BME280;36113;50.742;6.432;2023-04-25T09:53:43;112741.81;;;-145.50;51.46
50226;BME280;36113;50.742;6.432;2023-04-25T09:56:10;112741.81;;;-145.50;52.37
50226;BME280;36113;50.742;6.432;2023-04-25T09:58:37;112741.81;;;-145.50;52.58
50226;BME280;36113;50.742;6.432;2023-04-25T10:01:05;112741.81;;;-145.50;53.33
50226;BME280;36113;50.742;6.432;2023-04-25T10:03:32;112741.81;;;-145.50;53.02
50226;BME280;36113;50.742;6.432;2023-04-25T10:06:07;112741.81;;;-145.50;53.89
50226;BME280;36113;50.742;6.432;2023-04-25T10:08:35;112741.81;;;-145.50;54.17
50226;BME280;36113;50.742;6.432;2023-04-25T10:11:07;112741.81;;;-145.50;55.31
50226;BME280;36113;50.742;6.432;2023-04-25T10:13:34;112741.81;;;-145.50;55.40
50226;BME280;36113;50.742;6.432;2023-04-25T10:16:00;112741.81;;;-145.50;55.88
50226;BME280;36113;50.742;6.432;2023-04-25T10:18:27;112741.81;;;-145.50;56.08
50226;BME280;36113;50.742;6.432;2023-04-25T10:20:54;112741.81;;;-145.50;55.31
50226;BME280;36113;50.742;6.432;2023-04-25T10:23:20;112741.81;;;-145.50;55.54
50226;BME280;36113;50.742;6.432;2023-04-25T10:25:47;112741.81;;;-145.50;53.96
50226;BME280;36113;50.742;6.432;2023-04-25T10:28:13;112741.81;;;-145.50;54.03
50226;BME280;36113;50.742;6.432;2023-04-25T10:30:56;112741.81;;;-145.50;54.35
50226;BME280;36113;50.742;6.432;2023-04-25T10:33:32;112741.81;;;-145.50;55.51
50226;BME280;36113;50.742;6.432;2023-04-25T10:35:58;112741.81;;;-145.50;54.13
50226;BME280;36113;50.742;6.432;2023-04-25T10:38:25;112741.81;;;-145.50;53.33
50226;BME280;36113;50.742;6.432;2023-04-25T10:41:03;112741.81;;;-145.50;52.94
50226;BME280;36113;50.742;6.432;2023-04-25T10:43:35;112741.81;;;-145.50;53.94
50226;BME280;36113;50.742;6.432;2023-04-25T10:46:21;112741.81;;;-145.50;52.68
50226;BME280;36113;50.742;6.432;2023-04-25T10:48:54;112741.81;;;-145.50;48.16
50226;BME280;36113;50.742;6.432;2023-04-25T10:51:28;112741.81;;;-145.50;49.09
50226;BME280;36113;50.742;6.432;2023-04-25T10:54:01;112741.81;;;-145.50;48.48
50226;BME280;36113;50.742;6.432;2023-04-25T10:56:31;112741.81;;;-145.50;49.06
50226;BME280;36113;50.742;6.432;2023-04-25T10:59:13;112741.81;;;-145.50;50.12
50226;BME280;36113;50.742;6.432;2023-04-25T11:01:41;112741.81;;;-145.50;49.86
50226;BME280;36113;50.742;6.432;2023-04-25T11:09:32;112741.81;;;-145.50;49.12
50226;BME280;36113;50.742;6.432;2023-04-25T11:11:58;112741.81;;;-145.50;47.61
50226;BME280;36113;50.742;6.432;2023-04-25T11:14:24;112741.81;;;-145.50;47.61
50226;BME280;36113;50.742;6.432;2023-04-25T11:16:53;112741.81;;;-145.50;47.77
50226;BME280;36113;50.742;6.432;2023-04-25T11:19:20;112741.81;;;-145.50;48.62
50226;BME280;36113;50.742;6.432;2023-04-25T11:21:46;112741.81;;;-145.50;50.10
50226;BME280;36113;50.742;6.432;2023-04-25T11:24:11;112741.81;;;-145.50;48.98
50226;BME280;36113;50.742;6.432;2023-04-25T11:26:37;112741.81;;;-145.50;49.06
50226;BME280;36113;50.742;6.432;2023-04-25T11:29:03;112741.81;;;-145.50;48.87
50226;BME280;36113;50.742;6.432;2023-04-25T11:31:29;112741.81;;;-145.50;47.58
50226;BME280;36113;50.742;6.432;2023-04-25T11:33:57;112741.81;;;-145.50;47.03
50226;BME280;36113;50.742;6.432;2023-04-25T11:36:23;112741.81;;;-145.50;45.83
50226;BME280;36113;50.742;6.432;2023-04-25T11:38:50;112741.81;;;-145.50;47.29
50226;BME280;36113;50.742;6.432;2023-04-25T11:41:17;112741.81;;;-145.50;48.42
50226;BME280;36113;50.742;6.432;2023-04-25T11:43:43;112741.81;;;-145.50;48.78
50226;BME280;36113;50.742;6.432;2023-04-25T11:46:08;112741.81;;;-145.50;49.55
50226;BME280;36113;50.742;6.432;2023-04-25T11:48:40;112741.81;;;-145.50;50.17
50226;BME280;36113;50.742;6.432;2023-04-25T11:51:06;112741.81;;;-145.50;51.74
50226;BME280;36113;50.742;6.432;2023-04-25T11:53:32;112741.81;;;-145.50;52.92
50226;BME280;36113;50.742;6.432;2023-04-25T11:55:58;112741.81;;;-145.50;52.79
50226;BME280;36113;50.742;6.432;2023-04-25T11:58:24;112741.81;;;-145.50;52.09
50226;BME280;36113;50.742;6.432;2023-04-25T12:00:50;112741.81;;;-145.50;53.13
50226;BME280;36113;50.742;6.432;2023-04-25T12:03:17;112741.81;;;-145.50;53.90
50226;BME280;36113;50.742;6.432;2023-04-25T12:05:44;112741.81;;;-145.50;53.65
50226;BME280;36113;50.742;6.432;2023-04-25T12:10:38;112741.81;;;-145.50;54.07
50226;BME280;36113;50.742;6.432;2023-04-25T12:13:28;112741.81;;;-145.50;53.69
50226;BME280;36113;50.742;6.432;2023-04-25T12:15:54;112741.81;;;-145.50;51.07
50226;BME280;36113;50.742;6.432;2023-04-25T12:18:23;112741.81;;;-145.50;51.75
50226;BME280;36113;50.742;6.432;2023-04-25T12:20:52;112741.81;;;-145.50;52.48
50226;BME280;36113;50.742;6.432;2023-04-25T12:23:25;112741.81;;;-145.50;50.06
50226;BME280;36113;50.742;6.432;2023-04-25T12:25:51;112741.81;;;-145.50;49.24
50226;BME280;36113;50.742;6.432;2023-04-25T12:28:21;112741.81;;;-145.50;48.62
50226;BME280;36113;50.742;6.432;2023-04-25T12:31:07;112741.81;;;-145.50;49.52
50226;BME280;36113;50.742;6.432;2023-04-25T12:33:35;112741.81;;;-145.50;49.38
50226;BME280;36113;50.742;6.432;2023-04-25T12:36:02;112741.81;;;-145.50;50.82